Bunch, Oklahoma
Current Conditions -  °F | °C
As of 5:15 PM on Monday 22 Dec 2014 (Local Time) from KJSV Reporting Station
Overcast Overcast  
Wind Chill: 11°   Ceiling: 4000
Heat Index: 11°   Visibility: 10mi
Dew Point:   Wind: 6mph
Humidity: 82%   Direction: 290°WNW
Pressure: 29.59"   Gusts: NA
Location:  35.68°N, 94.76°W
Report Text: KJSV 222315Z AUTO 29005KT 10SM OVC040 11/08 A2959 RMK AO2
Loading
Personal Weather Stations






























Interactive Weather Map New forecast layout! Learn more

10-Day Weather Forecast

Advertisements
Track Severe Weather on mobile